sensor_id;sensor_type;location;lat;lon;timestamp;temperature;humidity
69598;SHT31;70000;51.176;-115.568;2023-06-10T00:00:18;24.84;31.20
69598;SHT31;70000;51.176;-115.568;2023-06-10T00:02:48;24.83;31.22
69598;SHT31;70000;51.176;-115.568;2023-06-10T00:05:17;24.82;31.16
69598;SHT31;70000;51.176;-115.568;2023-06-10T00:07:48;24.85;31.11
69598;SHT31;70000;51.176;-115.568;2023-06-10T00:10:18;24.87;30.76
69598;SHT31;70000;51.176;-115.568;2023-06-10T00:12:47;24.87;30.64
69598;SHT31;70000;51.176;-115.568;2023-06-10T00:15:17;24.89;30.25
69598;SHT31;70000;51.176;-115.568;2023-06-10T00:17:46;24.88;30.16
69598;SHT31;70000;51.176;-115.568;2023-06-10T00:20:16;24.88;30.01
69598;SHT31;70000;51.176;-115.568;2023-06-10T00:22:45;24.86;29.75
69598;SHT31;70000;51.176;-115.568;2023-06-10T00:25:23;24.83;29.56
69598;SHT31;70000;51.176;-115.568;2023-06-10T00:27:55;24.78;29.51
69598;SHT31;70000;51.176;-115.568;2023-06-10T00:30:24;24.76;29.45
69598;SHT31;70000;51.176;-115.568;2023-06-10T00:32:53;24.71;29.30
69598;SHT31;70000;51.176;-115.568;2023-06-10T00:35:26;24.67;29.19
69598;SHT31;70000;51.176;-115.568;2023-06-10T00:37:55;24.61;29.20
69598;SHT31;70000;51.176;-115.568;2023-06-10T00:40:25;24.56;29.30
69598;SHT31;70000;51.176;-115.568;2023-06-10T00:42:58;24.51;29.54
69598;SHT31;70000;51.176;-115.568;2023-06-10T00:45:28;24.46;30.00
69598;SHT31;70000;51.176;-115.568;2023-06-10T00:47:58;24.41;30.29
69598;SHT31;70000;51.176;-115.568;2023-06-10T00:50:29;24.36;30.30
69598;SHT31;70000;51.176;-115.568;2023-06-10T00:52:59;24.30;30.36
69598;SHT31;70000;51.176;-115.568;2023-06-10T00:55:32;24.26;30.55
69598;SHT31;70000;51.176;-115.568;2023-06-10T00:58:08;24.23;31.29
69598;SHT31;70000;51.176;-115.568;2023-06-10T01:00:37;24.17;31.58
69598;SHT31;70000;51.176;-115.568;2023-06-10T01:03:07;24.13;32.04
69598;SHT31;70000;51.176;-115.568;2023-06-10T01:05:40;24.04;32.80
69598;SHT31;70000;51.176;-115.568;2023-06-10T01:08:19;23.96;33.59
69598;SHT31;70000;51.176;-115.568;2023-06-10T01:11:17;23.90;34.04
69598;SHT31;70000;51.176;-115.568;2023-06-10T01:14:02;23.75;34.11
69598;SHT31;70000;51.176;-115.568;2023-06-10T01:16:40;23.65;34.13
69598;SHT31;70000;51.176;-115.568;2023-06-10T01:19:27;23.56;34.13
69598;SHT31;70000;51.176;-115.568;2023-06-10T01:21:59;23.48;34.40
69598;SHT31;70000;51.176;-115.568;2023-06-10T01:24:28;23.39;34.67
69598;SHT31;70000;51.176;-115.568;2023-06-10T01:27:01;23.32;35.07
69598;SHT31;70000;51.176;-115.568;2023-06-10T01:29:42;23.23;35.66
69598;SHT31;70000;51.176;-115.568;2023-06-10T01:32:18;23.19;36.29
69598;SHT31;70000;51.176;-115.568;2023-06-10T01:34:58;23.17;36.17
69598;SHT31;70000;51.176;-115.568;2023-06-10T01:37:29;23.12;36.31
69598;SHT31;70000;51.176;-115.568;2023-06-10T01:40:02;23.11;36.36
69598;SHT31;70000;51.176;-115.568;2023-06-10T01:42:33;23.08;36.16
69598;SHT31;70000;51.176;-115.568;2023-06-10T01:45:14;23.04;36.35
69598;SHT31;70000;51.176;-115.568;2023-06-10T01:47:47;23.01;36.92
69598;SHT31;70000;51.176;-115.568;2023-06-10T01:50:17;22.98;37.13
69598;SHT31;70000;51.176;-115.568;2023-06-10T01:52:49;22.91;37.32
69598;SHT31;70000;51.176;-115.568;2023-06-10T01:55:18;22.86;37.15
69598;SHT31;70000;51.176;-115.568;2023-06-10T01:57:57;22.81;36.94
69598;SHT31;70000;51.176;-115.568;2023-06-10T02:00:27;22.79;36.96
69598;SHT31;70000;51.176;-115.568;2023-06-10T02:02:56;22.73;36.87
69598;SHT31;70000;51.176;-115.568;2023-06-10T02:05:35;22.70;36.75
69598;SHT31;70000;51.176;-115.568;2023-06-10T02:08:10;22.63;36.36
69598;SHT31;70000;51.176;-115.568;2023-06-10T02:10:43;22.60;36.07
69598;SHT31;70000;51.176;-115.568;2023-06-10T02:13:12;22.58;35.95
69598;SHT31;70000;51.176;-115.568;2023-06-10T02:15:42;22.45;35.81
69598;SHT31;70000;51.176;-115.568;2023-06-10T02:18:11;22.40;35.81
69598;SHT31;70000;51.176;-115.568;2023-06-10T02:20:41;22.36;35.62
69598;SHT31;70000;51.176;-115.568;2023-06-10T02:23:10;22.33;34.94
69598;SHT31;70000;51.176;-115.568;2023-06-10T02:25:43;22.23;34.72
69598;SHT31;70000;51.176;-115.568;2023-06-10T02:28:12;22.18;34.90
69598;SHT31;70000;51.176;-115.568;2023-06-10T02:30:48;22.16;35.00
69598;SHT31;70000;51.176;-115.568;2023-06-10T02:33:17;22.14;35.07
69598;SHT31;70000;51.176;-115.568;2023-06-10T02:35:47;22.15;34.95
69598;SHT31;70000;51.176;-115.568;2023-06-10T02:38:17;22.15;34.92
69598;SHT31;70000;51.176;-115.568;2023-06-10T02:40:46;22.12;34.84
69598;SHT31;70000;51.176;-115.568;2023-06-10T02:43:16;22.13;34.37
69598;SHT31;70000;51.176;-115.568;2023-06-10T02:45:45;22.10;34.32
69598;SHT31;70000;51.176;-115.568;2023-06-10T02:48:16;22.07;34.07
69598;SHT31;70000;51.176;-115.568;2023-06-10T02:50:46;22.04;34.02
69598;SHT31;70000;51.176;-115.568;2023-06-10T02:53:15;22.00;33.92
69598;SHT31;70000;51.176;-115.568;2023-06-10T02:55:44;21.95;33.64
69598;SHT31;70000;51.176;-115.568;2023-06-10T02:58:13;21.87;33.48
69598;SHT31;70000;51.176;-115.568;2023-06-10T03:00:45;21.81;33.64
69598;SHT31;70000;51.176;-115.568;2023-06-10T03:03:15;21.77;33.89
69598;SHT31;70000;51.176;-115.568;2023-06-10T03:05:47;21.74;34.12
69598;SHT31;70000;51.176;-115.568;2023-06-10T03:08:34;21.68;34.37
69598;SHT31;70000;51.176;-115.568;2023-06-10T03:11:05;21.62;34.68
69598;SHT31;70000;51.176;-115.568;2023-06-10T03:13:38;21.62;34.84
69598;SHT31;70000;51.176;-115.568;2023-06-10T03:16:10;21.59;34.79
69598;SHT31;70000;51.176;-115.568;2023-06-10T03:18:47;21.55;34.72
69598;SHT31;70000;51.176;-115.568;2023-06-10T03:21:19;21.52;34.82
69598;SHT31;70000;51.176;-115.568;2023-06-10T03:23:49;21.51;35.04
69598;SHT31;70000;51.176;-115.568;2023-06-10T03:26:18;21.46;35.34
69598;SHT31;70000;51.176;-115.568;2023-06-10T03:28:50;21.39;35.48
69598;SHT31;70000;51.176;-115.568;2023-06-10T03:31:19;21.35;35.66
69598;SHT31;70000;51.176;-115.568;2023-06-10T03:33:53;21.33;35.69
69598;SHT31;70000;51.176;-115.568;2023-06-10T03:36:22;21.33;35.85
69598;SHT31;70000;51.176;-115.568;2023-06-10T03:38:55;21.31;35.95
69598;SHT31;70000;51.176;-115.568;2023-06-10T03:41:24;21.26;36.05
69598;SHT31;70000;51.176;-115.568;2023-06-10T03:43:54;21.24;36.09
69598;SHT31;70000;51.176;-115.568;2023-06-10T03:46:26;21.21;36.26
69598;SHT31;70000;51.176;-115.568;2023-06-10T03:48:56;21.13;36.34
69598;SHT31;70000;51.176;-115.568;2023-06-10T03:51:28;21.07;36.60
69598;SHT31;70000;51.176;-115.568;2023-06-10T03:53:57;20.99;36.67
69598;SHT31;70000;51.176;-115.568;2023-06-10T03:56:26;20.95;36.70
69598;SHT31;70000;51.176;-115.568;2023-06-10T03:58:56;20.95;36.65
69598;SHT31;70000;51.176;-115.568;2023-06-10T04:01:25;20.93;36.62
69598;SHT31;70000;51.176;-115.568;2023-06-10T04:03:54;20.91;36.80
69598;SHT31;70000;51.176;-115.568;2023-06-10T04:06:23;20.84;36.83
69598;SHT31;70000;51.176;-115.568;2023-06-10T04:08:53;20.79;36.81
69598;SHT31;70000;51.176;-115.568;2023-06-10T04:11:23;20.75;36.76
69598;SHT31;70000;51.176;-115.568;2023-06-10T04:13:53;20.70;36.72
69598;SHT31;70000;51.176;-115.568;2023-06-10T04:16:22;20.67;36.72
69598;SHT31;70000;51.176;-115.568;2023-06-10T04:18:51;20.62;36.83
69598;SHT31;70000;51.176;-115.568;2023-06-10T04:21:20;20.62;36.87
69598;SHT31;70000;51.176;-115.568;2023-06-10T04:23:49;20.58;36.97
69598;SHT31;70000;51.176;-115.568;2023-06-10T04:26:22;20.58;36.84
69598;SHT31;70000;51.176;-115.568;2023-06-10T04:28:51;20.56;37.02
69598;SHT31;70000;51.176;-115.568;2023-06-10T04:31:20;20.55;37.17
69598;SHT31;70000;51.176;-115.568;2023-06-10T04:33:58;20.56;37.21
69598;SHT31;70000;51.176;-115.568;2023-06-10T04:36:28;20.56;37.31
69598;SHT31;70000;51.176;-115.568;2023-06-10T04:38:57;20.54;37.46
69598;SHT31;70000;51.176;-115.568;2023-06-10T04:41:29;20.51;37.57
69598;SHT31;70000;51.176;-115.568;2023-06-10T04:43:58;20.48;37.56
69598;SHT31;70000;51.176;-115.568;2023-06-10T04:46:30;20.43;37.68
69598;SHT31;70000;51.176;-115.568;2023-06-10T04:49:00;20.41;37.87
69598;SHT31;70000;51.176;-115.568;2023-06-10T04:51:29;20.40;37.92
69598;SHT31;70000;51.176;-115.568;2023-06-10T04:53:59;20.40;38.09
69598;SHT31;70000;51.176;-115.568;2023-06-10T04:56:34;20.37;38.33
69598;SHT31;70000;51.176;-115.568;2023-06-10T04:59:04;20.30;38.57
69598;SHT31;70000;51.176;-115.568;2023-06-10T05:01:32;20.27;38.58
69598;SHT31;70000;51.176;-115.568;2023-06-10T05:04:02;20.23;38.54
69598;SHT31;70000;51.176;-115.568;2023-06-10T05:06:32;20.18;38.62
69598;SHT31;70000;51.176;-115.568;2023-06-10T05:09:01;20.15;38.74
69598;SHT31;70000;51.176;-115.568;2023-06-10T05:11:30;20.13;38.84
69598;SHT31;70000;51.176;-115.568;2023-06-10T05:13:59;20.08;38.88
69598;SHT31;70000;51.176;-115.568;2023-06-10T05:16:28;20.05;38.76
69598;SHT31;70000;51.176;-115.568;2023-06-10T05:19:03;20.02;38.78
69598;SHT31;70000;51.176;-115.568;2023-06-10T05:21:34;19.98;38.81
69598;SHT31;70000;51.176;-115.568;2023-06-10T05:24:04;19.94;38.91
69598;SHT31;70000;51.176;-115.568;2023-06-10T05:26:44;19.94;38.81
69598;SHT31;70000;51.176;-115.568;2023-06-10T05:29:22;19.92;38.87
69598;SHT31;70000;51.176;-115.568;2023-06-10T05:31:51;19.87;38.87
69598;SHT31;70000;51.176;-115.568;2023-06-10T05:34:21;19.85;38.82
69598;SHT31;70000;51.176;-115.568;2023-06-10T05:37:02;19.82;38.99
69598;SHT31;70000;51.176;-115.568;2023-06-10T05:39:35;19.76;39.02
69598;SHT31;70000;51.176;-115.568;2023-06-10T05:42:07;19.74;39.14
69598;SHT31;70000;51.176;-115.568;2023-06-10T05:44:38;19.73;39.17
69598;SHT31;70000;51.176;-115.568;2023-06-10T05:47:10;19.72;39.17
69598;SHT31;70000;51.176;-115.568;2023-06-10T05:49:40;19.68;39.16
69598;SHT31;70000;51.176;-115.568;2023-06-10T05:52:13;19.69;39.08
69598;SHT31;70000;51.176;-115.568;2023-06-10T05:54:49;19.66;39.18
69598;SHT31;70000;51.176;-115.568;2023-06-10T05:57:22;19.65;39.25
69598;SHT31;70000;51.176;-115.568;2023-06-10T05:59:55;19.62;39.47
69598;SHT31;70000;51.176;-115.568;2023-06-10T06:02:37;19.59;39.55
69598;SHT31;70000;51.176;-115.568;2023-06-10T06:05:22;19.57;39.62
69598;SHT31;70000;51.176;-115.568;2023-06-10T06:08:03;19.55;39.70
69598;SHT31;70000;51.176;-115.568;2023-06-10T06:10:36;19.54;39.86
69598;SHT31;70000;51.176;-115.568;2023-06-10T06:13:18;19.51;39.91
69598;SHT31;70000;51.176;-115.568;2023-06-10T06:15:50;19.48;40.11
69598;SHT31;70000;51.176;-115.568;2023-06-10T06:18:26;19.42;40.32
69598;SHT31;70000;51.176;-115.568;2023-06-10T06:20:57;19.40;40.50
69598;SHT31;70000;51.176;-115.568;2023-06-10T06:23:27;19.40;40.66
69598;SHT31;70000;51.176;-115.568;2023-06-10T06:26:00;19.40;40.83
69598;SHT31;70000;51.176;-115.568;2023-06-10T06:28:32;19.39;41.08
69598;SHT31;70000;51.176;-115.568;2023-06-10T06:31:20;19.36;41.23
69598;SHT31;70000;51.176;-115.568;2023-06-10T06:33:56;19.36;41.36
69598;SHT31;70000;51.176;-115.568;2023-06-10T06:36:25;19.35;41.46
69598;SHT31;70000;51.176;-115.568;2023-06-10T06:39:04;19.33;41.68
69598;SHT31;70000;51.176;-115.568;2023-06-10T06:41:36;19.31;41.85
69598;SHT31;70000;51.176;-115.568;2023-06-10T06:44:25;19.27;42.01
69598;SHT31;70000;51.176;-115.568;2023-06-10T06:46:55;19.22;42.09
69598;SHT31;70000;51.176;-115.568;2023-06-10T06:49:37;19.16;42.23
69598;SHT31;70000;51.176;-115.568;2023-06-10T06:52:15;19.12;42.32
69598;SHT31;70000;51.176;-115.568;2023-06-10T06:54:58;19.09;42.36
69598;SHT31;70000;51.176;-115.568;2023-06-10T06:57:27;19.06;42.45
69598;SHT31;70000;51.176;-115.568;2023-06-10T07:00:07;19.03;42.50
69598;SHT31;70000;51.176;-115.568;2023-06-10T07:02:37;19.00;42.53
69598;SHT31;70000;51.176;-115.568;2023-06-10T07:05:07;18.98;42.68
69598;SHT31;70000;51.176;-115.568;2023-06-10T07:07:39;18.95;42.83
69598;SHT31;70000;51.176;-115.568;2023-06-10T07:10:17;18.93;42.88
69598;SHT31;70000;51.176;-115.568;2023-06-10T07:12:52;18.93;43.06
69598;SHT31;70000;51.176;-115.568;2023-06-10T07:15:25;18.87;43.26
69598;SHT31;70000;51.176;-115.568;2023-06-10T07:17:57;18.82;43.43
69598;SHT31;70000;51.176;-115.568;2023-06-10T07:20:32;18.76;43.53
69598;SHT31;70000;51.176;-115.568;2023-06-10T07:23:05;18.73;43.59
69598;SHT31;70000;51.176;-115.568;2023-06-10T07:25:37;18.66;43.85
69598;SHT31;70000;51.176;-115.568;2023-06-10T07:28:17;18.58;43.76
69598;SHT31;70000;51.176;-115.568;2023-06-10T07:30:56;18.52;43.89
69598;SHT31;70000;51.176;-115.568;2023-06-10T07:33:37;18.47;44.01
69598;SHT31;70000;51.176;-115.568;2023-06-10T07:36:16;18.40;44.25
69598;SHT31;70000;51.176;-115.568;2023-06-10T07:38:48;18.39;44.16
69598;SHT31;70000;51.176;-115.568;2023-06-10T07:41:28;18.36;44.24
69598;SHT31;70000;51.176;-115.568;2023-06-10T07:44:03;18.30;44.48
69598;SHT31;70000;51.176;-115.568;2023-06-10T07:46:38;18.19;44.61
69598;SHT31;70000;51.176;-115.568;2023-06-10T07:49:12;18.10;44.76
69598;SHT31;70000;51.176;-115.568;2023-06-10T07:51:44;18.08;44.84
69598;SHT31;70000;51.176;-115.568;2023-06-10T07:54:18;18.05;45.09
69598;SHT31;70000;51.176;-115.568;2023-06-10T07:56:59;17.99;45.07
69598;SHT31;70000;51.176;-115.568;2023-06-10T07:59:43;17.96;45.16
69598;SHT31;70000;51.176;-115.568;2023-06-10T08:02:12;17.95;45.00
69598;SHT31;70000;51.176;-115.568;2023-06-10T08:04:44;17.93;45.11
69598;SHT31;70000;51.176;-115.568;2023-06-10T08:07:13;17.86;45.32
69598;SHT31;70000;51.176;-115.568;2023-06-10T08:09:43;17.81;45.44
69598;SHT31;70000;51.176;-115.568;2023-06-10T08:12:12;17.75;45.60
69598;SHT31;70000;51.176;-115.568;2023-06-10T08:14:44;17.70;45.88
69598;SHT31;70000;51.176;-115.568;2023-06-10T08:17:15;17.69;45.95
69598;SHT31;70000;51.176;-115.568;2023-06-10T08:19:51;17.68;45.93
69598;SHT31;70000;51.176;-115.568;2023-06-10T08:22:28;17.66;45.99
69598;SHT31;70000;51.176;-115.568;2023-06-10T08:25:01;17.59;46.16
69598;SHT31;70000;51.176;-115.568;2023-06-10T08:27:34;17.53;46.27
69598;SHT31;70000;51.176;-115.568;2023-06-10T08:30:07;17.49;46.22
69598;SHT31;70000;51.176;-115.568;2023-06-10T08:32:38;17.48;46.00
69598;SHT31;70000;51.176;-115.568;2023-06-10T08:35:07;17.48;45.90
69598;SHT31;70000;51.176;-115.568;2023-06-10T08:37:37;17.47;45.89
69598;SHT31;70000;51.176;-115.568;2023-06-10T08:40:09;17.43;46.26
69598;SHT31;70000;51.176;-115.568;2023-06-10T08:42:47;17.39;46.35
69598;SHT31;70000;51.176;-115.568;2023-06-10T08:45:49;17.38;46.38
69598;SHT31;70000;51.176;-115.568;2023-06-10T08:48:30;17.34;46.43
69598;SHT31;70000;51.176;-115.568;2023-06-10T08:51:07;17.28;46.37
69598;SHT31;70000;51.176;-115.568;2023-06-10T08:53:42;17.22;46.51
69598;SHT31;70000;51.176;-115.568;2023-06-10T08:56:32;17.20;46.51
69598;SHT31;70000;51.176;-115.568;2023-06-10T08:59:08;17.21;46.63
69598;SHT31;70000;51.176;-115.568;2023-06-10T09:01:41;17.15;46.91
69598;SHT31;70000;51.176;-115.568;2023-06-10T09:04:15;17.08;47.12
69598;SHT31;70000;51.176;-115.568;2023-06-10T09:06:48;17.07;47.16
69598;SHT31;70000;51.176;-115.568;2023-06-10T09:09:19;17.06;47.13
69598;SHT31;70000;51.176;-115.568;2023-06-10T09:11:51;17.03;47.18
69598;SHT31;70000;51.176;-115.568;2023-06-10T09:14:23;16.96;47.23
69598;SHT31;70000;51.176;-115.568;2023-06-10T09:16:54;16.95;47.24
69598;SHT31;70000;51.176;-115.568;2023-06-10T09:19:27;16.95;47.29
69598;SHT31;70000;51.176;-115.568;2023-06-10T09:21:58;16.91;47.33
69598;SHT31;70000;51.176;-115.568;2023-06-10T09:24:33;16.90;47.39
69598;SHT31;70000;51.176;-115.568;2023-06-10T09:27:04;16.89;47.50
69598;SHT31;70000;51.176;-115.568;2023-06-10T09:29:51;16.94;47.38
69598;SHT31;70000;51.176;-115.568;2023-06-10T09:32:23;16.95;47.63
69598;SHT31;70000;51.176;-115.568;2023-06-10T09:34:53;16.91;47.72
69598;SHT31;70000;51.176;-115.568;2023-06-10T09:37:22;16.87;47.73
69598;SHT31;70000;51.176;-115.568;2023-06-10T09:40:03;16.85;47.80
69598;SHT31;70000;51.176;-115.568;2023-06-10T09:42:35;16.84;47.89
69598;SHT31;70000;51.176;-115.568;2023-06-10T09:45:07;16.81;47.86
69598;SHT31;70000;51.176;-115.568;2023-06-10T09:47:45;16.79;47.94
69598;SHT31;70000;51.176;-115.568;2023-06-10T09:50:24;16.79;48.00
69598;SHT31;70000;51.176;-115.568;2023-06-10T09:52:54;16.79;47.97
69598;SHT31;70000;51.176;-115.568;2023-06-10T09:55:28;16.80;47.95
69598;SHT31;70000;51.176;-115.568;2023-06-10T09:58:04;16.80;48.08
69598;SHT31;70000;51.176;-115.568;2023-06-10T10:00:36;16.80;48.23
69598;SHT31;70000;51.176;-115.568;2023-06-10T10:03:06;16.80;48.29
69598;SHT31;70000;51.176;-115.568;2023-06-10T10:05:37;16.81;48.35
69598;SHT31;70000;51.176;-115.568;2023-06-10T10:08:10;16.79;48.20
69598;SHT31;70000;51.176;-115.568;2023-06-10T10:10:43;16.75;48.22
69598;SHT31;70000;51.176;-115.568;2023-06-10T10:13:15;16.74;48.30
69598;SHT31;70000;51.176;-115.568;2023-06-10T10:15:49;16.76;48.21
69598;SHT31;70000;51.176;-115.568;2023-06-10T10:18:31;16.78;48.18
69598;SHT31;70000;51.176;-115.568;2023-06-10T10:21:09;16.78;48.32
69598;SHT31;70000;51.176;-115.568;2023-06-10T10:24:05;16.76;48.30
69598;SHT31;70000;51.176;-115.568;2023-06-10T10:26:51;16.77;48.37
69598;SHT31;70000;51.176;-115.568;2023-06-10T10:29:41;16.76;48.57
69598;SHT31;70000;51.176;-115.568;2023-06-10T10:32:15;16.76;48.83
69598;SHT31;70000;51.176;-115.568;2023-06-10T10:34:53;16.72;49.00
69598;SHT31;70000;51.176;-115.568;2023-06-10T10:37:37;16.63;49.30
69598;SHT31;70000;51.176;-115.568;2023-06-10T10:40:10;16.56;49.42
69598;SHT31;70000;51.176;-115.568;2023-06-10T10:42:43;16.56;49.36
69598;SHT31;70000;51.176;-115.568;2023-06-10T10:45:13;16.54;49.34
69598;SHT31;70000;51.176;-115.568;2023-06-10T10:47:45;16.57;49.29
69598;SHT31;70000;51.176;-115.568;2023-06-10T10:50:21;16.56;49.50
69598;SHT31;70000;51.176;-115.568;2023-06-10T10:52:54;16.57;49.55
69598;SHT31;70000;51.176;-115.568;2023-06-10T10:55:32;16.59;49.55
69598;SHT31;70000;51.176;-115.568;2023-06-10T10:58:05;16.63;49.45
69598;SHT31;70000;51.176;-115.568;2023-06-10T11:00:37;16.65;49.37
69598;SHT31;70000;51.176;-115.568;2023-06-10T11:03:14;16.66;49.50
69598;SHT31;70000;51.176;-115.568;2023-06-10T11:05:48;16.67;49.57
69598;SHT31;70000;51.176;-115.568;2023-06-10T11:11:17;16.66;49.84
69598;SHT31;70000;51.176;-115.568;2023-06-10T11:16:39;16.56;50.00
69598;SHT31;70000;51.176;-115.568;2023-06-10T11:19:14;16.55;49.90
69598;SHT31;70000;51.176;-115.568;2023-06-10T11:22:08;16.54;49.84
69598;SHT31;70000;51.176;-115.568;2023-06-10T11:24:51;16.58;49.71
69598;SHT31;70000;51.176;-115.568;2023-06-10T11:27:21;16.59;49.65
69598;SHT31;70000;51.176;-115.568;2023-06-10T11:32:33;16.65;49.66
69598;SHT31;70000;51.176;-115.568;2023-06-10T11:35:03;16.60;49.64
69598;SHT31;70000;51.176;-115.568;2023-06-10T11:37:35;16.60;49.63
69598;SHT31;70000;51.176;-115.568;2023-06-10T11:40:06;16.57;49.71
69598;SHT31;70000;51.176;-115.568;2023-06-10T11:42:42;16.56;49.83
69598;SHT31;70000;51.176;-115.568;2023-06-10T11:45:16;16.55;50.12
69598;SHT31;70000;51.176;-115.568;2023-06-10T11:47:58;16.53;50.30
69598;SHT31;70000;51.176;-115.568;2023-06-10T11:50:31;16.51;50.37
69598;SHT31;70000;51.176;-115.568;2023-06-10T11:53:01;16.49;50.43
69598;SHT31;70000;51.176;-115.568;2023-06-10T11:55:43;16.50;50.49
69598;SHT31;70000;51.176;-115.568;2023-06-10T11:58:16;16.52;50.53
69598;SHT31;70000;51.176;-115.568;2023-06-10T12:00:51;16.53;50.43
69598;SHT31;70000;51.176;-115.568;2023-06-10T12:03:24;16.54;50.41
69598;SHT31;70000;51.176;-115.568;2023-06-10T12:05:57;16.55;50.36
69598;SHT31;70000;51.176;-115.568;2023-06-10T12:08:34;16.58;50.23
69598;SHT31;70000;51.176;-115.568;2023-06-10T12:11:11;16.59;50.44
69598;SHT31;70000;51.176;-115.568;2023-06-10T12:13:47;16.58;50.62
69598;SHT31;70000;51.176;-115.568;2023-06-10T12:16:18;16.56;50.71
69598;SHT31;70000;51.176;-115.568;2023-06-10T12:18:48;16.57;50.78
69598;SHT31;70000;51.176;-115.568;2023-06-10T12:21:24;16.57;50.93
69598;SHT31;70000;51.176;-115.568;2023-06-10T12:24:04;16.55;51.14
69598;SHT31;70000;51.176;-115.568;2023-06-10T12:26:42;16.55;51.36
69598;SHT31;70000;51.176;-115.568;2023-06-10T12:32:05;16.58;51.85
69598;SHT31;70000;51.176;-115.568;2023-06-10T12:34:36;16.56;52.00
69598;SHT31;70000;51.176;-115.568;2023-06-10T12:37:11;16.57;52.28
69598;SHT31;70000;51.176;-115.568;2023-06-10T12:39:43;16.57;52.52
69598;SHT31;70000;51.176;-115.568;2023-06-10T12:42:23;16.59;52.82
69598;SHT31;70000;51.176;-115.568;2023-06-10T12:44:54;16.61;53.06
69598;SHT31;70000;51.176;-115.568;2023-06-10T12:47:31;16.61;52.64
69598;SHT31;70000;51.176;-115.568;2023-06-10T12:50:07;16.61;51.89
69598;SHT31;70000;51.176;-115.568;2023-06-10T12:52:37;16.59;51.60
69598;SHT31;70000;51.176;-115.568;2023-06-10T12:55:06;16.58;51.11
69598;SHT31;70000;51.176;-115.568;2023-06-10T12:57:46;16.56;50.83
69598;SHT31;70000;51.176;-115.568;2023-06-10T13:00:18;16.56;50.69
69598;SHT31;70000;51.176;-115.568;2023-06-10T13:02:51;16.57;50.71
69598;SHT31;70000;51.176;-115.568;2023-06-10T13:05:23;16.60;50.99
69598;SHT31;70000;51.176;-115.568;2023-06-10T13:07:56;16.60;51.26
69598;SHT31;70000;51.176;-115.568;2023-06-10T13:10:26;16.62;51.54
69598;SHT31;70000;51.176;-115.568;2023-06-10T13:12:57;16.63;51.74
69598;SHT31;70000;51.176;-115.568;2023-06-10T13:15:27;16.66;51.86
69598;SHT31;70000;51.176;-115.568;2023-06-10T13:18:09;16.70;51.74
69598;SHT31;70000;51.176;-115.568;2023-06-10T13:20:43;16.75;51.69
69598;SHT31;70000;51.176;-115.568;2023-06-10T13:23:13;16.71;51.66
69598;SHT31;70000;51.176;-115.568;2023-06-10T13:25:45;16.67;51.80
69598;SHT31;70000;51.176;-115.568;2023-06-10T13:28:17;16.70;51.89
69598;SHT31;70000;51.176;-115.568;2023-06-10T13:30:46;16.73;51.87
69598;SHT31;70000;51.176;-115.568;2023-06-10T13:33:19;16.75;51.90
69598;SHT31;70000;51.176;-115.568;2023-06-10T13:35:49;16.76;51.99
69598;SHT31;70000;51.176;-115.568;2023-06-10T13:38:18;16.79;52.06
69598;SHT31;70000;51.176;-115.568;2023-06-10T13:40:47;16.78;52.06
69598;SHT31;70000;51.176;-115.568;2023-06-10T13:43:19;16.78;52.12
69598;SHT31;70000;51.176;-115.568;2023-06-10T13:45:51;16.78;52.14
69598;SHT31;70000;51.176;-115.568;2023-06-10T13:48:28;16.79;52.16
69598;SHT31;70000;51.176;-115.568;2023-06-10T13:50:59;16.82;52.11
69598;SHT31;70000;51.176;-115.568;2023-06-10T13:53:29;16.84;52.18
69598;SHT31;70000;51.176;-115.568;2023-06-10T13:55:58;16.86;52.06
69598;SHT31;70000;51.176;-115.568;2023-06-10T13:58:27;16.87;52.09
69598;SHT31;70000;51.176;-115.568;2023-06-10T14:00:56;16.87;52.95
69598;SHT31;70000;51.176;-115.568;2023-06-10T14:03:32;16.90;53.40
69598;SHT31;70000;51.176;-115.568;2023-06-10T14:06:08;16.93;54.07
69598;SHT31;70000;51.176;-115.568;2023-06-10T14:08:43;16.97;54.05
69598;SHT31;70000;51.176;-115.568;2023-06-10T14:11:13;17.01;53.98
69598;SHT31;70000;51.176;-115.568;2023-06-10T14:13:43;17.05;53.97
69598;SHT31;70000;51.176;-115.568;2023-06-10T14:16:12;17.11;53.83
69598;SHT31;70000;51.176;-115.568;2023-06-10T14:18:44;17.17;54.15
69598;SHT31;70000;51.176;-115.568;2023-06-10T14:21:17;17.25;54.85
69598;SHT31;70000;51.176;-115.568;2023-06-10T14:23:47;17.32;54.52
69598;SHT31;70000;51.176;-115.568;2023-06-10T14:26:17;17.34;54.15
69598;SHT31;70000;51.176;-115.568;2023-06-10T14:28:45;17.39;53.94
69598;SHT31;70000;51.176;-115.568;2023-06-10T14:31:21;17.43;53.92
69598;SHT31;70000;51.176;-115.568;2023-06-10T14:33:50;17.46;53.89
69598;SHT31;70000;51.176;-115.568;2023-06-10T14:36:22;17.52;53.78
69598;SHT31;70000;51.176;-115.568;2023-06-10T14:38:51;17.57;53.47
69598;SHT31;70000;51.176;-115.568;2023-06-10T14:41:21;17.64;53.39
69598;SHT31;70000;51.176;-115.568;2023-06-10T14:43:53;17.69;52.94
69598;SHT31;70000;51.176;-115.568;2023-06-10T14:46:25;17.75;52.16
69598;SHT31;70000;51.176;-115.568;2023-06-10T14:48:54;17.80;51.83
69598;SHT31;70000;51.176;-115.568;2023-06-10T14:51:23;17.86;51.78
69598;SHT31;70000;51.176;-115.568;2023-06-10T14:53:55;17.91;51.49
69598;SHT31;70000;51.176;-115.568;2023-06-10T14:56:31;17.97;51.28
69598;SHT31;70000;51.176;-115.568;2023-06-10T14:59:00;18.02;50.83
69598;SHT31;70000;51.176;-115.568;2023-06-10T15:01:32;18.08;51.18
69598;SHT31;70000;51.176;-115.568;2023-06-10T15:04:01;18.15;51.51
69598;SHT31;70000;51.176;-115.568;2023-06-10T15:06:30;18.20;51.47
69598;SHT31;70000;51.176;-115.568;2023-06-10T15:09:00;18.27;50.69
69598;SHT31;70000;51.176;-115.568;2023-06-10T15:11:29;18.34;50.25
69598;SHT31;70000;51.176;-115.568;2023-06-10T15:13:58;18.40;49.69
69598;SHT31;70000;51.176;-115.568;2023-06-10T15:16:30;18.46;49.47
69598;SHT31;70000;51.176;-115.568;2023-06-10T15:18:59;18.52;49.45
69598;SHT31;70000;51.176;-115.568;2023-06-10T15:21:28;18.57;49.56
69598;SHT31;70000;51.176;-115.568;2023-06-10T15:23:58;18.64;49.45
69598;SHT31;70000;51.176;-115.568;2023-06-10T15:26:27;18.70;49.51
69598;SHT31;70000;51.176;-115.568;2023-06-10T15:28:56;18.78;49.21
69598;SHT31;70000;51.176;-115.568;2023-06-10T15:31:35;18.84;49.02
69598;SHT31;70000;51.176;-115.568;2023-06-10T15:34:06;18.91;49.22